sensor_id;sensor_type;location;lat;lon;timestamp;temperature;humidity
75363;DHT22;64122;51.988;5.892;2023-06-19T00:02:07;24.51;43.51
75363;DHT22;64122;51.988;5.892;2023-06-19T00:04:36;24.53;43.64
75363;DHT22;64122;51.988;5.892;2023-06-19T00:07:05;24.53;43.78
75363;DHT22;64122;51.988;5.892;2023-06-19T00:09:35;24.53;43.85
75363;DHT22;64122;51.988;5.892;2023-06-19T00:12:05;24.53;44.08
75363;DHT22;64122;51.988;5.892;2023-06-19T00:14:37;24.50;44.21
75363;DHT22;64122;51.988;5.892;2023-06-19T00:17:06;24.53;44.42
75363;DHT22;64122;51.988;5.892;2023-06-19T00:19:35;24.54;44.51
75363;DHT22;64122;51.988;5.892;2023-06-19T00:22:05;24.55;44.61
75363;DHT22;64122;51.988;5.892;2023-06-19T00:24:34;24.55;44.67
75363;DHT22;64122;51.988;5.892;2023-06-19T00:27:05;24.53;44.83
75363;DHT22;64122;51.988;5.892;2023-06-19T00:29:37;24.53;45.06
75363;DHT22;64122;51.988;5.892;2023-06-19T00:32:07;24.46;45.40
75363;DHT22;64122;51.988;5.892;2023-06-19T00:34:36;24.43;45.62
75363;DHT22;64122;51.988;5.892;2023-06-19T00:37:09;24.43;45.93
75363;DHT22;64122;51.988;5.892;2023-06-19T00:39:39;24.41;46.25
75363;DHT22;64122;51.988;5.892;2023-06-19T00:42:08;24.39;46.44
75363;DHT22;64122;51.988;5.892;2023-06-19T00:44:40;24.38;46.61
75363;DHT22;64122;51.988;5.892;2023-06-19T00:47:10;24.38;46.86
75363;DHT22;64122;51.988;5.892;2023-06-19T00:49:40;24.35;46.95
75363;DHT22;64122;51.988;5.892;2023-06-19T00:52:09;24.32;47.10
75363;DHT22;64122;51.988;5.892;2023-06-19T00:54:38;24.33;47.13
75363;DHT22;64122;51.988;5.892;2023-06-19T00:57:08;24.34;47.09
75363;DHT22;64122;51.988;5.892;2023-06-19T00:59:40;24.33;47.13
75363;DHT22;64122;51.988;5.892;2023-06-19T01:02:09;24.21;46.89
75363;DHT22;64122;51.988;5.892;2023-06-19T01:04:38;24.29;47.09
75363;DHT22;64122;51.988;5.892;2023-06-19T01:07:09;24.26;47.18
75363;DHT22;64122;51.988;5.892;2023-06-19T01:09:44;24.25;47.18
75363;DHT22;64122;51.988;5.892;2023-06-19T01:12:18;24.25;47.22
75363;DHT22;64122;51.988;5.892;2023-06-19T01:14:54;24.23;47.21
75363;DHT22;64122;51.988;5.892;2023-06-19T01:17:24;24.23;47.30
75363;DHT22;64122;51.988;5.892;2023-06-19T01:19:54;24.23;47.40
75363;DHT22;64122;51.988;5.892;2023-06-19T01:22:27;24.21;47.32
75363;DHT22;64122;51.988;5.892;2023-06-19T01:24:58;24.25;47.22
75363;DHT22;64122;51.988;5.892;2023-06-19T01:27:28;24.24;47.22
75363;DHT22;64122;51.988;5.892;2023-06-19T01:30:02;24.23;47.36
75363;DHT22;64122;51.988;5.892;2023-06-19T01:32:40;24.17;47.28
75363;DHT22;64122;51.988;5.892;2023-06-19T01:35:11;24.17;47.46
75363;DHT22;64122;51.988;5.892;2023-06-19T01:37:44;24.14;47.54
75363;DHT22;64122;51.988;5.892;2023-06-19T01:40:16;24.10;47.60
75363;DHT22;64122;51.988;5.892;2023-06-19T01:42:47;24.01;47.83
75363;DHT22;64122;51.988;5.892;2023-06-19T01:45:17;23.94;48.05
75363;DHT22;64122;51.988;5.892;2023-06-19T01:47:46;23.85;48.23
75363;DHT22;64122;51.988;5.892;2023-06-19T01:50:16;23.77;48.47
75363;DHT22;64122;51.988;5.892;2023-06-19T01:52:49;23.70;48.80
75363;DHT22;64122;51.988;5.892;2023-06-19T01:55:18;23.65;49.12
75363;DHT22;64122;51.988;5.892;2023-06-19T01:57:48;23.58;49.34
75363;DHT22;64122;51.988;5.892;2023-06-19T02:00:18;23.55;49.56
75363;DHT22;64122;51.988;5.892;2023-06-19T02:02:47;23.47;49.82
75363;DHT22;64122;51.988;5.892;2023-06-19T02:05:17;23.44;49.92
75363;DHT22;64122;51.988;5.892;2023-06-19T02:07:49;23.38;50.10
75363;DHT22;64122;51.988;5.892;2023-06-19T02:10:18;23.34;50.36
75363;DHT22;64122;51.988;5.892;2023-06-19T02:12:48;23.26;50.63
75363;DHT22;64122;51.988;5.892;2023-06-19T02:15:17;23.21;50.82
75363;DHT22;64122;51.988;5.892;2023-06-19T02:17:46;23.14;51.18
75363;DHT22;64122;51.988;5.892;2023-06-19T02:20:21;23.07;51.47
75363;DHT22;64122;51.988;5.892;2023-06-19T02:22:53;22.99;51.85
75363;DHT22;64122;51.988;5.892;2023-06-19T02:25:22;22.80;51.74
75363;DHT22;64122;51.988;5.892;2023-06-19T02:27:51;22.83;52.53
75363;DHT22;64122;51.988;5.892;2023-06-19T02:30:21;22.77;52.94
75363;DHT22;64122;51.988;5.892;2023-06-19T02:32:50;22.69;53.22
75363;DHT22;64122;51.988;5.892;2023-06-19T02:35:19;22.66;53.43
75363;DHT22;64122;51.988;5.892;2023-06-19T02:37:48;22.61;53.78
75363;DHT22;64122;51.988;5.892;2023-06-19T02:40:22;22.54;54.02
75363;DHT22;64122;51.988;5.892;2023-06-19T02:42:53;22.49;54.23
75363;DHT22;64122;51.988;5.892;2023-06-19T02:45:22;22.46;54.39
75363;DHT22;64122;51.988;5.892;2023-06-19T02:47:52;22.42;54.68
75363;DHT22;64122;51.988;5.892;2023-06-19T02:50:21;22.39;54.81
75363;DHT22;64122;51.988;5.892;2023-06-19T02:52:50;22.37;54.94
75363;DHT22;64122;51.988;5.892;2023-06-19T02:55:23;22.33;55.02
75363;DHT22;64122;51.988;5.892;2023-06-19T02:57:52;22.34;55.22
75363;DHT22;64122;51.988;5.892;2023-06-19T03:00:21;22.28;55.49
75363;DHT22;64122;51.988;5.892;2023-06-19T03:02:51;22.21;55.68
75363;DHT22;64122;51.988;5.892;2023-06-19T03:05:20;22.20;55.81
75363;DHT22;64122;51.988;5.892;2023-06-19T03:07:49;22.19;55.94
75363;DHT22;64122;51.988;5.892;2023-06-19T03:10:18;22.21;56.10
75363;DHT22;64122;51.988;5.892;2023-06-19T03:12:50;22.19;56.47
75363;DHT22;64122;51.988;5.892;2023-06-19T03:15:20;22.21;56.58
75363;DHT22;64122;51.988;5.892;2023-06-19T03:17:50;22.24;56.77
75363;DHT22;64122;51.988;5.892;2023-06-19T03:20:20;22.25;56.92
75363;DHT22;64122;51.988;5.892;2023-06-19T03:22:57;22.14;57.30
75363;DHT22;64122;51.988;5.892;2023-06-19T03:25:28;22.17;57.38
75363;DHT22;64122;51.988;5.892;2023-06-19T03:28:05;22.13;57.56
75363;DHT22;64122;51.988;5.892;2023-06-19T03:30:35;22.10;57.71
75363;DHT22;64122;51.988;5.892;2023-06-19T03:33:05;22.05;58.00
75363;DHT22;64122;51.988;5.892;2023-06-19T03:35:46;21.99;58.08
75363;DHT22;64122;51.988;5.892;2023-06-19T03:38:26;21.97;58.22
75363;DHT22;64122;51.988;5.892;2023-06-19T03:40:56;21.99;58.23
75363;DHT22;64122;51.988;5.892;2023-06-19T03:43:28;22.05;58.23
75363;DHT22;64122;51.988;5.892;2023-06-19T03:45:58;22.13;58.12
75363;DHT22;64122;51.988;5.892;2023-06-19T03:48:27;22.14;58.19
75363;DHT22;64122;51.988;5.892;2023-06-19T03:50:56;22.19;58.13
75363;DHT22;64122;51.988;5.892;2023-06-19T03:53:27;22.24;58.06
75363;DHT22;64122;51.988;5.892;2023-06-19T03:55:56;22.25;58.11
75363;DHT22;64122;51.988;5.892;2023-06-19T03:58:28;22.27;58.13
75363;DHT22;64122;51.988;5.892;2023-06-19T04:00:57;22.34;57.99
75363;DHT22;64122;51.988;5.892;2023-06-19T04:03:27;22.35;58.05
75363;DHT22;64122;51.988;5.892;2023-06-19T04:05:56;22.34;58.04
75363;DHT22;64122;51.988;5.892;2023-06-19T04:08:25;22.34;58.00
75363;DHT22;64122;51.988;5.892;2023-06-19T04:10:54;22.36;58.00
75363;DHT22;64122;51.988;5.892;2023-06-19T04:13:24;22.35;58.04
75363;DHT22;64122;51.988;5.892;2023-06-19T04:15:56;22.33;58.23
75363;DHT22;64122;51.988;5.892;2023-06-19T04:18:27;22.33;58.28
75363;DHT22;64122;51.988;5.892;2023-06-19T04:20:57;22.34;58.36
75363;DHT22;64122;51.988;5.892;2023-06-19T04:23:26;22.32;58.48
75363;DHT22;64122;51.988;5.892;2023-06-19T04:25:55;22.28;58.67
75363;DHT22;64122;51.988;5.892;2023-06-19T04:28:24;22.27;58.74
75363;DHT22;64122;51.988;5.892;2023-06-19T04:30:57;22.26;58.86
75363;DHT22;64122;51.988;5.892;2023-06-19T04:33:29;22.25;59.11
75363;DHT22;64122;51.988;5.892;2023-06-19T04:35:58;22.22;59.33
75363;DHT22;64122;51.988;5.892;2023-06-19T04:38:27;22.20;59.56
75363;DHT22;64122;51.988;5.892;2023-06-19T04:40:56;22.20;59.67
75363;DHT22;64122;51.988;5.892;2023-06-19T04:43:26;22.19;59.77
75363;DHT22;64122;51.988;5.892;2023-06-19T04:45:58;22.17;59.95
75363;DHT22;64122;51.988;5.892;2023-06-19T04:48:29;22.20;59.99
75363;DHT22;64122;51.988;5.892;2023-06-19T04:51:01;22.22;59.94
75363;DHT22;64122;51.988;5.892;2023-06-19T04:53:31;22.24;60.04
75363;DHT22;64122;51.988;5.892;2023-06-19T04:56:00;22.26;60.12
75363;DHT22;64122;51.988;5.892;2023-06-19T04:58:29;22.25;60.33
75363;DHT22;64122;51.988;5.892;2023-06-19T05:01:01;22.27;60.35
75363;DHT22;64122;51.988;5.892;2023-06-19T05:03:30;22.29;60.41
75363;DHT22;64122;51.988;5.892;2023-06-19T05:05:59;22.29;60.60
75363;DHT22;64122;51.988;5.892;2023-06-19T05:08:29;22.23;60.92
75363;DHT22;64122;51.988;5.892;2023-06-19T05:10:58;22.17;61.25
75363;DHT22;64122;51.988;5.892;2023-06-19T05:13:27;22.14;61.54
75363;DHT22;64122;51.988;5.892;2023-06-19T05:15:56;22.13;61.70
75363;DHT22;64122;51.988;5.892;2023-06-19T05:18:28;22.08;61.92
75363;DHT22;64122;51.988;5.892;2023-06-19T05:20:57;22.09;61.99
75363;DHT22;64122;51.988;5.892;2023-06-19T05:23:26;22.04;62.29
75363;DHT22;64122;51.988;5.892;2023-06-19T05:25:56;22.03;62.37
75363;DHT22;64122;51.988;5.892;2023-06-19T05:28:25;22.01;62.48
75363;DHT22;64122;51.988;5.892;2023-06-19T05:30:54;21.97;62.71
75363;DHT22;64122;51.988;5.892;2023-06-19T05:33:23;21.96;62.79
75363;DHT22;64122;51.988;5.892;2023-06-19T05:35:55;21.94;62.87
75363;DHT22;64122;51.988;5.892;2023-06-19T05:38:24;21.97;62.89
75363;DHT22;64122;51.988;5.892;2023-06-19T05:40:56;21.98;62.93
75363;DHT22;64122;51.988;5.892;2023-06-19T05:43:26;22.11;62.66
75363;DHT22;64122;51.988;5.892;2023-06-19T05:45:55;22.25;62.42
75363;DHT22;64122;51.988;5.892;2023-06-19T05:48:25;22.35;62.27
75363;DHT22;64122;51.988;5.892;2023-06-19T05:50:57;22.44;61.97
75363;DHT22;64122;51.988;5.892;2023-06-19T05:53:26;22.55;61.73
75363;DHT22;64122;51.988;5.892;2023-06-19T05:55:57;22.62;61.57
75363;DHT22;64122;51.988;5.892;2023-06-19T05:58:27;22.69;61.32
75363;DHT22;64122;51.988;5.892;2023-06-19T06:00:56;22.72;61.28
75363;DHT22;64122;51.988;5.892;2023-06-19T06:03:26;22.72;61.17
75363;DHT22;64122;51.988;5.892;2023-06-19T06:05:59;22.67;61.33
75363;DHT22;64122;51.988;5.892;2023-06-19T06:08:29;22.70;61.31
75363;DHT22;64122;51.988;5.892;2023-06-19T06:10:58;22.69;61.31
75363;DHT22;64122;51.988;5.892;2023-06-19T06:13:27;22.75;61.31
75363;DHT22;64122;51.988;5.892;2023-06-19T06:15:56;22.81;61.09
75363;DHT22;64122;51.988;5.892;2023-06-19T06:18:26;22.83;61.07
75363;DHT22;64122;51.988;5.892;2023-06-19T06:20:57;22.82;60.88
75363;DHT22;64122;51.988;5.892;2023-06-19T06:23:27;22.84;60.81
75363;DHT22;64122;51.988;5.892;2023-06-19T06:25:56;22.84;60.60
75363;DHT22;64122;51.988;5.892;2023-06-19T06:28:28;22.81;60.68
75363;DHT22;64122;51.988;5.892;2023-06-19T06:30:57;22.81;60.83
75363;DHT22;64122;51.988;5.892;2023-06-19T06:33:27;22.77;60.98
75363;DHT22;64122;51.988;5.892;2023-06-19T06:35:59;22.78;61.05
75363;DHT22;64122;51.988;5.892;2023-06-19T06:38:28;22.77;61.11
75363;DHT22;64122;51.988;5.892;2023-06-19T06:40:57;22.72;61.40
75363;DHT22;64122;51.988;5.892;2023-06-19T06:43:26;22.69;61.50
75363;DHT22;64122;51.988;5.892;2023-06-19T06:45:56;22.66;61.59
75363;DHT22;64122;51.988;5.892;2023-06-19T06:48:25;22.68;61.73
75363;DHT22;64122;51.988;5.892;2023-06-19T06:50:54;22.66;61.63
75363;DHT22;64122;51.988;5.892;2023-06-19T06:53:29;22.66;61.62
75363;DHT22;64122;51.988;5.892;2023-06-19T06:55:59;22.69;60.71
75363;DHT22;64122;51.988;5.892;2023-06-19T06:58:29;22.69;59.64
75363;DHT22;64122;51.988;5.892;2023-06-19T07:00:58;22.61;59.18
75363;DHT22;64122;51.988;5.892;2023-06-19T07:03:28;22.54;59.09
75363;DHT22;64122;51.988;5.892;2023-06-19T07:05:58;22.57;58.99
75363;DHT22;64122;51.988;5.892;2023-06-19T07:08:31;22.58;59.11
75363;DHT22;64122;51.988;5.892;2023-06-19T07:11:00;22.61;58.96
75363;DHT22;64122;51.988;5.892;2023-06-19T07:13:29;22.62;58.79
75363;DHT22;64122;51.988;5.892;2023-06-19T07:15:59;22.65;58.54
75363;DHT22;64122;51.988;5.892;2023-06-19T07:18:29;22.69;58.34
75363;DHT22;64122;51.988;5.892;2023-06-19T07:20:59;22.84;57.82
75363;DHT22;64122;51.988;5.892;2023-06-19T07:23:31;23.12;57.00
75363;DHT22;64122;51.988;5.892;2023-06-19T07:26:00;23.38;56.02
75363;DHT22;64122;51.988;5.892;2023-06-19T07:28:29;23.53;55.36
75363;DHT22;64122;51.988;5.892;2023-06-19T07:30:59;23.71;54.70
75363;DHT22;64122;51.988;5.892;2023-06-19T07:33:28;23.96;53.62
75363;DHT22;64122;51.988;5.892;2023-06-19T07:35:58;24.24;52.72
75363;DHT22;64122;51.988;5.892;2023-06-19T07:38:31;24.53;51.73
75363;DHT22;64122;51.988;5.892;2023-06-19T07:41:00;24.76;50.95
75363;DHT22;64122;51.988;5.892;2023-06-19T07:43:29;24.99;50.38
75363;DHT22;64122;51.988;5.892;2023-06-19T07:45:58;25.19;49.67
75363;DHT22;64122;51.988;5.892;2023-06-19T07:48:28;25.31;49.32
75363;DHT22;64122;51.988;5.892;2023-06-19T07:50:57;25.81;48.15
75363;DHT22;64122;51.988;5.892;2023-06-19T07:53:26;26.54;46.30
75363;DHT22;64122;51.988;5.892;2023-06-19T07:56:01;27.44;44.14
75363;DHT22;64122;51.988;5.892;2023-06-19T07:58:30;27.14;44.05
75363;DHT22;64122;51.988;5.892;2023-06-19T08:01:00;26.85;44.52
75363;DHT22;64122;51.988;5.892;2023-06-19T08:03:29;27.85;42.31
75363;DHT22;64122;51.988;5.892;2023-06-19T08:05:58;28.71;40.28
75363;DHT22;64122;51.988;5.892;2023-06-19T08:08:28;28.04;41.45
75363;DHT22;64122;51.988;5.892;2023-06-19T08:10:57;27.28;43.07
75363;DHT22;64122;51.988;5.892;2023-06-19T08:13:29;26.67;44.49
75363;DHT22;64122;51.988;5.892;2023-06-19T08:15:58;26.45;44.84
75363;DHT22;64122;51.988;5.892;2023-06-19T08:18:27;27.50;42.52
75363;DHT22;64122;51.988;5.892;2023-06-19T08:20:56;28.48;40.03
75363;DHT22;64122;51.988;5.892;2023-06-19T08:23:26;28.95;38.90
75363;DHT22;64122;51.988;5.892;2023-06-19T08:25:55;28.34;39.90
75363;DHT22;64122;51.988;5.892;2023-06-19T08:28:24;27.91;41.20
75363;DHT22;64122;51.988;5.892;2023-06-19T08:30:56;27.71;41.73
75363;DHT22;64122;51.988;5.892;2023-06-19T08:33:25;27.70;41.72
75363;DHT22;64122;51.988;5.892;2023-06-19T08:35:54;27.39;42.38
75363;DHT22;64122;51.988;5.892;2023-06-19T08:38:24;27.17;42.30
75363;DHT22;64122;51.988;5.892;2023-06-19T08:40:53;27.36;41.91
75363;DHT22;64122;51.988;5.892;2023-06-19T08:43:24;28.46;39.91
75363;DHT22;64122;51.988;5.892;2023-06-19T08:46:06;28.50;39.66
75363;DHT22;64122;51.988;5.892;2023-06-19T08:48:37;28.11;40.43
75363;DHT22;64122;51.988;5.892;2023-06-19T08:51:07;27.81;41.03
75363;DHT22;64122;51.988;5.892;2023-06-19T08:53:45;28.71;39.59
75363;DHT22;64122;51.988;5.892;2023-06-19T08:56:14;29.58;37.83
75363;DHT22;64122;51.988;5.892;2023-06-19T08:58:43;30.19;37.14
75363;DHT22;64122;51.988;5.892;2023-06-19T09:01:17;30.66;35.97
75363;DHT22;64122;51.988;5.892;2023-06-19T09:03:47;30.45;36.61
75363;DHT22;64122;51.988;5.892;2023-06-19T09:06:18;30.61;35.94
75363;DHT22;64122;51.988;5.892;2023-06-19T09:08:57;30.92;35.58
75363;DHT22;64122;51.988;5.892;2023-06-19T09:11:27;30.98;35.43
75363;DHT22;64122;51.988;5.892;2023-06-19T09:13:57;30.09;36.97
75363;DHT22;64122;51.988;5.892;2023-06-19T09:16:40;29.35;38.40
75363;DHT22;64122;51.988;5.892;2023-06-19T09:19:09;29.20;38.75
75363;DHT22;64122;51.988;5.892;2023-06-19T09:21:38;29.30;38.27
75363;DHT22;64122;51.988;5.892;2023-06-19T09:24:08;29.35;37.92
75363;DHT22;64122;51.988;5.892;2023-06-19T09:26:37;29.20;38.34
75363;DHT22;64122;51.988;5.892;2023-06-19T09:29:11;29.72;37.56
75363;DHT22;64122;51.988;5.892;2023-06-19T09:31:44;30.39;36.43
75363;DHT22;64122;51.988;5.892;2023-06-19T09:34:14;30.89;35.24
75363;DHT22;64122;51.988;5.892;2023-06-19T09:36:44;31.39;34.06
75363;DHT22;64122;51.988;5.892;2023-06-19T09:39:15;31.67;33.29
75363;DHT22;64122;51.988;5.892;2023-06-19T09:41:46;32.08;32.88
75363;DHT22;64122;51.988;5.892;2023-06-19T09:44:23;32.08;32.67
75363;DHT22;64122;51.988;5.892;2023-06-19T09:46:56;31.59;33.83
75363;DHT22;64122;51.988;5.892;2023-06-19T09:49:30;30.66;35.32
75363;DHT22;64122;51.988;5.892;2023-06-19T09:52:00;30.08;36.52
75363;DHT22;64122;51.988;5.892;2023-06-19T09:54:31;30.52;35.70
75363;DHT22;64122;51.988;5.892;2023-06-19T09:57:00;30.53;35.78
75363;DHT22;64122;51.988;5.892;2023-06-19T09:59:30;30.96;35.21
75363;DHT22;64122;51.988;5.892;2023-06-19T10:02:03;31.53;34.28
75363;DHT22;64122;51.988;5.892;2023-06-19T10:04:42;32.01;33.77
75363;DHT22;64122;51.988;5.892;2023-06-19T10:07:16;32.38;32.45
75363;DHT22;64122;51.988;5.892;2023-06-19T10:10:00;32.50;32.20
75363;DHT22;64122;51.988;5.892;2023-06-19T10:12:39;32.24;31.91
75363;DHT22;64122;51.988;5.892;2023-06-19T10:15:16;31.87;32.57
75363;DHT22;64122;51.988;5.892;2023-06-19T10:17:50;31.59;33.01
75363;DHT22;64122;51.988;5.892;2023-06-19T10:20:25;31.61;33.38
75363;DHT22;64122;51.988;5.892;2023-06-19T10:23:03;31.46;33.25
75363;DHT22;64122;51.988;5.892;2023-06-19T10:25:33;31.14;34.08
75363;DHT22;64122;51.988;5.892;2023-06-19T10:28:21;31.26;34.25
75363;DHT22;64122;51.988;5.892;2023-06-19T10:30:54;31.26;34.36
75363;DHT22;64122;51.988;5.892;2023-06-19T10:33:28;31.01;34.44
75363;DHT22;64122;51.988;5.892;2023-06-19T10:35:59;30.57;35.41
75363;DHT22;64122;51.988;5.892;2023-06-19T10:38:28;30.30;35.65
75363;DHT22;64122;51.988;5.892;2023-06-19T10:40:58;30.32;35.77
75363;DHT22;64122;51.988;5.892;2023-06-19T10:43:27;30.33;35.97
75363;DHT22;64122;51.988;5.892;2023-06-19T10:45:58;30.41;35.74
75363;DHT22;64122;51.988;5.892;2023-06-19T10:48:34;30.35;35.63
75363;DHT22;64122;51.988;5.892;2023-06-19T10:51:03;30.26;36.06
75363;DHT22;64122;51.988;5.892;2023-06-19T10:53:33;30.04;35.98
75363;DHT22;64122;51.988;5.892;2023-06-19T10:56:02;29.75;36.59
75363;DHT22;64122;51.988;5.892;2023-06-19T10:58:32;29.65;36.75
75363;DHT22;64122;51.988;5.892;2023-06-19T11:01:01;29.74;36.52
75363;DHT22;64122;51.988;5.892;2023-06-19T11:03:34;29.87;36.34
75363;DHT22;64122;51.988;5.892;2023-06-19T11:06:03;29.87;36.26
75363;DHT22;64122;51.988;5.892;2023-06-19T11:08:34;29.74;36.43
75363;DHT22;64122;51.988;5.892;2023-06-19T11:11:03;29.83;36.40
75363;DHT22;64122;51.988;5.892;2023-06-19T11:13:32;29.91;36.24
75363;DHT22;64122;51.988;5.892;2023-06-19T11:16:02;30.04;35.69
75363;DHT22;64122;51.988;5.892;2023-06-19T11:18:33;29.95;35.16
75363;DHT22;64122;51.988;5.892;2023-06-19T11:21:03;29.73;35.97
75363;DHT22;64122;51.988;5.892;2023-06-19T11:23:32;29.67;35.83
75363;DHT22;64122;51.988;5.892;2023-06-19T11:26:05;29.68;35.78
75363;DHT22;64122;51.988;5.892;2023-06-19T11:28:35;29.61;36.21
75363;DHT22;64122;51.988;5.892;2023-06-19T11:31:04;29.61;36.22
75363;DHT22;64122;51.988;5.892;2023-06-19T11:33:41;29.71;35.89
75363;DHT22;64122;51.988;5.892;2023-06-19T11:36:12;29.74;36.04
75363;DHT22;64122;51.988;5.892;2023-06-19T11:38:44;29.79;35.95
75363;DHT22;64122;51.988;5.892;2023-06-19T11:41:24;29.86;35.54
75363;DHT22;64122;51.988;5.892;2023-06-19T11:44:02;29.90;35.15
75363;DHT22;64122;51.988;5.892;2023-06-19T11:46:33;29.86;34.99
75363;DHT22;64122;51.988;5.892;2023-06-19T11:49:13;29.73;35.16
75363;DHT22;64122;51.988;5.892;2023-06-19T11:51:43;29.66;34.85
75363;DHT22;64122;51.988;5.892;2023-06-19T11:54:13;29.52;35.13
75363;DHT22;64122;51.988;5.892;2023-06-19T11:56:44;29.44;35.14
75363;DHT22;64122;51.988;5.892;2023-06-19T11:59:13;29.37;35.45
75363;DHT22;64122;51.988;5.892;2023-06-19T12:01:43;29.31;35.63
75363;DHT22;64122;51.988;5.892;2023-06-19T12:04:15;29.37;35.53
75363;DHT22;64122;51.988;5.892;2023-06-19T12:06:44;29.47;34.73
75363;DHT22;64122;51.988;5.892;2023-06-19T12:09:13;29.51;34.19
75363;DHT22;64122;51.988;5.892;2023-06-19T12:11:44;29.56;34.48
75363;DHT22;64122;51.988;5.892;2023-06-19T12:14:13;29.61;33.64
75363;DHT22;64122;51.988;5.892;2023-06-19T12:16:45;29.71;33.31
75363;DHT22;64122;51.988;5.892;2023-06-19T12:19:17;29.68;33.67
75363;DHT22;64122;51.988;5.892;2023-06-19T12:21:46;29.73;34.33
75363;DHT22;64122;51.988;5.892;2023-06-19T12:24:16;29.70;33.83
75363;DHT22;64122;51.988;5.892;2023-06-19T12:26:45;29.65;32.63
75363;DHT22;64122;51.988;5.892;2023-06-19T12:29:14;29.46;33.08
75363;DHT22;64122;51.988;5.892;2023-06-19T12:31:43;29.37;33.51
75363;DHT22;64122;51.988;5.892;2023-06-19T12:34:13;29.36;33.47
75363;DHT22;64122;51.988;5.892;2023-06-19T12:36:46;29.16;33.91
75363;DHT22;64122;51.988;5.892;2023-06-19T12:39:16;29.21;33.46
75363;DHT22;64122;51.988;5.892;2023-06-19T12:41:45;29.16;33.80
75363;DHT22;64122;51.988;5.892;2023-06-19T12:44:15;29.07;34.23
75363;DHT22;64122;51.988;5.892;2023-06-19T12:46:44;29.03;34.53
75363;DHT22;64122;51.988;5.892;2023-06-19T12:49:13;29.08;34.25
75363;DHT22;64122;51.988;5.892;2023-06-19T12:51:45;29.03;33.73
75363;DHT22;64122;51.988;5.892;2023-06-19T12:54:17;29.03;33.57
75363;DHT22;64122;51.988;5.892;2023-06-19T12:56:46;29.06;33.73
75363;DHT22;64122;51.988;5.892;2023-06-19T12:59:16;29.26;33.58
75363;DHT22;64122;51.988;5.892;2023-06-19T13:01:45;29.35;32.77
75363;DHT22;64122;51.988;5.892;2023-06-19T13:04:14;29.34;32.83
75363;DHT22;64122;51.988;5.892;2023-06-19T13:06:47;29.39;32.61
75363;DHT22;64122;51.988;5.892;2023-06-19T13:09:15;29.50;33.00
75363;DHT22;64122;51.988;5.892;2023-06-19T13:11:45;29.51;32.71
75363;DHT22;64122;51.988;5.892;2023-06-19T13:14:15;29.59;32.18
75363;DHT22;64122;51.988;5.892;2023-06-19T13:16:45;29.54;32.19
75363;DHT22;64122;51.988;5.892;2023-06-19T13:19:14;29.45;32.64
75363;DHT22;64122;51.988;5.892;2023-06-19T13:21:46;29.53;32.89
75363;DHT22;64122;51.988;5.892;2023-06-19T13:24:16;29.64;32.99
75363;DHT22;64122;51.988;5.892;2023-06-19T13:26:45;29.76;32.88
75363;DHT22;64122;51.988;5.892;2023-06-19T13:29:15;29.80;32.70
75363;DHT22;64122;51.988;5.892;2023-06-19T13:31:44;29.61;32.54
75363;DHT22;64122;51.988;5.892;2023-06-19T13:34:14;29.39;33.21
75363;DHT22;64122;51.988;5.892;2023-06-19T13:36:47;29.42;33.34
75363;DHT22;64122;51.988;5.892;2023-06-19T13:39:17;29.60;32.76
75363;DHT22;64122;51.988;5.892;2023-06-19T13:41:47;29.62;32.24
75363;DHT22;64122;51.988;5.892;2023-06-19T13:44:16;29.67;32.52
75363;DHT22;64122;51.988;5.892;2023-06-19T13:46:45;29.73;32.86
75363;DHT22;64122;51.988;5.892;2023-06-19T13:49:15;29.81;32.72
75363;DHT22;64122;51.988;5.892;2023-06-19T13:51:47;29.90;32.49
75363;DHT22;64122;51.988;5.892;2023-06-19T13:54:17;29.91;32.45
75363;DHT22;64122;51.988;5.892;2023-06-19T13:56:47;29.92;32.03
75363;DHT22;64122;51.988;5.892;2023-06-19T13:59:17;29.78;32.02
75363;DHT22;64122;51.988;5.892;2023-06-19T14:01:46;29.64;32.02
75363;DHT22;64122;51.988;5.892;2023-06-19T14:04:16;29.61;32.38
75363;DHT22;64122;51.988;5.892;2023-06-19T14:06:47;29.62;32.73
75363;DHT22;64122;51.988;5.892;2023-06-19T14:09:17;29.64;32.77
75363;DHT22;64122;51.988;5.892;2023-06-19T14:11:46;29.51;33.04
75363;DHT22;64122;51.988;5.892;2023-06-19T14:14:18;29.50;33.34
75363;DHT22;64122;51.988;5.892;2023-06-19T14:16:47;29.64;33.47
75363;DHT22;64122;51.988;5.892;2023-06-19T14:19:17;29.73;33.01
75363;DHT22;64122;51.988;5.892;2023-06-19T14:21:49;29.66;33.25
75363;DHT22;64122;51.988;5.892;2023-06-19T14:24:18;29.73;33.15
75363;DHT22;64122;51.988;5.892;2023-06-19T14:26:47;29.80;33.35
75363;DHT22;64122;51.988;5.892;2023-06-19T14:29:16;29.90;33.06
75363;DHT22;64122;51.988;5.892;2023-06-19T14:31:46;29.96;32.80
75363;DHT22;64122;51.988;5.892;2023-06-19T14:34:16;30.03;32.57
75363;DHT22;64122;51.988;5.892;2023-06-19T14:36:48;29.95;32.67
75363;DHT22;64122;51.988;5.892;2023-06-19T14:39:18;29.93;32.62
75363;DHT22;64122;51.988;5.892;2023-06-19T14:41:47;29.86;32.99
75363;DHT22;64122;51.988;5.892;2023-06-19T14:44:16;29.77;33.13
75363;DHT22;64122;51.988;5.892;2023-06-19T14:46:45;29.81;33.09
75363;DHT22;64122;51.988;5.892;2023-06-19T14:49:15;29.77;33.20
75363;DHT22;64122;51.988;5.892;2023-06-19T14:51:44;29.75;33.18
75363;DHT22;64122;51.988;5.892;2023-06-19T14:54:16;29.74;33.00
75363;DHT22;64122;51.988;5.892;2023-06-19T14:56:45;29.76;32.89
75363;DHT22;64122;51.988;5.892;2023-06-19T14:59:16;29.63;33.01
75363;DHT22;64122;51.988;5.892;2023-06-19T15:01:45;29.68;32.68
75363;DHT22;64122;51.988;5.892;2023-06-19T15:04:14;29.64;32.54
75363;DHT22;64122;51.988;5.892;2023-06-19T15:06:44;29.57;32.89
75363;DHT22;64122;51.988;5.892;2023-06-19T15:09:16;29.57;32.84
75363;DHT22;64122;51.988;5.892;2023-06-19T15:11:45;29.60;32.99
75363;DHT22;64122;51.988;5.892;2023-06-19T15:14:15;29.66;33.12
75363;DHT22;64122;51.988;5.892;2023-06-19T15:16:44;29.60;33.18
75363;DHT22;64122;51.988;5.892;2023-06-19T15:19:14;29.58;33.14
75363;DHT22;64122;51.988;5.892;2023-06-19T15:21:43;29.50;33.18
75363;DHT22;64122;51.988;5.892;2023-06-19T15:24:17;29.54;33.12
75363;DHT22;64122;51.988;5.892;2023-06-19T15:26:46;29.61;32.92
75363;DHT22;64122;51.988;5.892;2023-06-19T15:29:18;29.63;32.97
75363;DHT22;64122;51.988;5.892;2023-06-19T15:31:47;29.63;32.61
75363;DHT22;64122;51.988;5.892;2023-06-19T15:34:17;29.65;32.57
75363;DHT22;64122;51.988;5.892;2023-06-19T15:36:46;29.72;32.50
75363;DHT22;64122;51.988;5.892;2023-06-19T15:39:19;29.67;32.64
75363;DHT22;64122;51.988;5.892;2023-06-19T15:41:49;29.71;32.89
75363;DHT22;64122;51.988;5.892;2023-06-19T15:44:19;29.72;33.26
75363;DHT22;64122;51.988;5.892;2023-06-19T15:46:48;29.68;33.05
75363;DHT22;64122;51.988;5.892;2023-06-19T15:49:18;29.53;32.99
75363;DHT22;64122;51.988;5.892;2023-06-19T15:51:47;29.39;33.07